Time,TemperatureF,DewpointF,PressureIn,WindDirection,WindDirectionDegrees,WindSpeedMPH,WindSpeedGustMPH,Humidity,HourlyPrecipIn,Conditions,Clouds,dailyrainin,SoftwareType,DateUTC
2013-07-14 00:01:00,51.0,37.0,30.08,SSW,202,0.0,0.0,59,0.00,,,0.01,,2013-07-14 06:01:00,
2013-07-14 00:11:00,51.0,37.0,30.08,SSW,202,0.0,0.0,59,0.00,,,0.01,,2013-07-14 06:11:00,
2013-07-14 00:22:00,50.0,36.0,30.08,SSW,202,0.0,1.0,58,0.00,,,0.01,,2013-07-14 06:22:00,
2013-07-14 00:32:00,50.0,36.0,30.08,SSW,202,0.0,1.0,58,0.00,,,0.01,,2013-07-14 06:32:00,
2013-07-14 00:42:00,50.0,36.0,30.08,SSW,202,0.0,1.0,58,0.00,,,0.01,,2013-07-14 06:42:00,
2013-07-14 00:53:00,49.0,35.0,30.09,SSW,202,0.0,0.0,58,0.00,,,0.01,,2013-07-14 06:53:00,
2013-07-14 01:02:00,49.0,35.0,30.09,SSW,202,0.0,0.0,58,0.00,,,0.01,,2013-07-14 07:02:00,
2013-07-14 01:11:00,49.0,35.0,30.09,SSW,202,0.0,0.0,58,0.00,,,0.01,,2013-07-14 07:11:00,
2013-07-14 01:22:00,49.0,36.0,30.09,SSW,202,0.0,0.0,60,0.00,,,0.01,,2013-07-14 07:22:00,
2013-07-14 01:32:00,49.0,36.0,30.09,SSW,202,0.0,0.0,60,0.00,,,0.01,,2013-07-14 07:32:00,
2013-07-14 01:43:00,49.0,36.0,30.09,SSW,202,0.0,0.0,60,0.00,,,0.01,,2013-07-14 07:43:00,
2013-07-14 01:53:00,48.0,35.0,30.09,SSW,202,0.0,1.0,60,0.00,,,0.01,,2013-07-14 07:53:00,
2013-07-14 02:01:00,48.0,35.0,30.09,SSW,202,0.0,1.0,60,0.00,,,0.01,,2013-07-14 08:01:00,
2013-07-14 02:11:00,48.0,35.0,30.09,SSW,202,0.0,1.0,60,0.00,,,0.01,,2013-07-14 08:11:00,
2013-07-14 02:22:00,48.0,36.0,30.09,SSW,202,0.0,0.0,63,0.00,,,0.00,,2013-07-14 08:22:00,
2013-07-14 02:32:00,48.0,36.0,30.09,SSW,202,0.0,0.0,63,0.00,,,0.00,,2013-07-14 08:32:00,
2013-07-14 02:42:00,48.0,36.0,30.09,SSW,202,0.0,0.0,63,0.00,,,0.00,,2013-07-14 08:42:00,
2013-07-14 02:53:00,47.0,35.0,30.08,SSW,202,0.0,0.0,64,0.00,,,0.00,,2013-07-14 08:53:00,
2013-07-14 03:01:00,47.0,35.0,30.08,SSW,202,0.0,0.0,64,0.00,,,0.00,,2013-07-14 09:01:00,
2013-07-14 03:11:00,47.0,35.0,30.08,SSW,202,0.0,0.0,64,0.00,,,0.00,,2013-07-14 09:11:00,
2013-07-14 03:22:00,47.0,35.0,30.07,SSW,202,0.0,1.0,63,0.00,,,0.00,,2013-07-14 09:22:00,
2013-07-14 03:32:00,47.0,35.0,30.07,SSW,202,0.0,1.0,63,0.00,,,0.00,,2013-07-14 09:32:00,
2013-07-14 03:42:00,47.0,35.0,30.07,SSW,202,0.0,1.0,63,0.00,,,0.00,,2013-07-14 09:42:00,
2013-07-14 03:53:00,47.0,35.0,30.07,SSW,202,0.0,0.0,62,0.00,,,0.00,,2013-07-14 09:53:00,
2013-07-14 04:01:00,47.0,35.0,30.07,SSW,202,0.0,0.0,62,0.00,,,0.00,,2013-07-14 10:01:00,
2013-07-14 04:11:00,47.0,35.0,30.07,SSW,202,0.0,0.0,62,0.00,,,0.00,,2013-07-14 10:11:00,
2013-07-14 04:21:00,47.0,35.0,30.07,SSW,202,0.0,0.0,64,0.00,,,0.00,,2013-07-14 10:21:00,
2013-07-14 04:32:00,47.0,35.0,30.07,SSW,202,0.0,0.0,64,0.00,,,0.00,,2013-07-14 10:32:00,
2013-07-14 04:42:00,47.0,35.0,30.07,SSW,202,0.0,0.0,64,0.00,,,0.00,,2013-07-14 10:42:00,
2013-07-14 04:53:00,47.0,36.0,30.08,SSW,202,0.0,0.0,65,0.00,,,0.00,,2013-07-14 10:53:00,
2013-07-14 05:01:00,47.0,36.0,30.08,SSW,202,0.0,0.0,65,0.00,,,0.00,,2013-07-14 11:01:00,
2013-07-14 05:11:00,47.0,36.0,30.08,SSW,202,0.0,0.0,65,0.00,,,0.00,,2013-07-14 11:11:00,
2013-07-14 05:21:00,46.0,36.0,30.08,SSW,202,0.0,0.0,67,0.00,,,0.00,,2013-07-14 11:21:00,
2013-07-14 05:32:00,46.0,36.0,30.08,SSW,202,0.0,0.0,67,0.00,,,0.00,,2013-07-14 11:32:00,
2013-07-14 05:43:00,46.0,36.0,30.08,SSW,202,0.0,0.0,67,0.00,,,0.00,,2013-07-14 11:43:00,
2013-07-14 05:53:00,45.0,35.0,30.09,SSW,202,0.0,0.0,69,0.00,,,0.00,,2013-07-14 11:53:00,
2013-07-14 06:02:00,45.0,35.0,30.09,SSW,202,0.0,0.0,69,0.00,,,0.00,,2013-07-14 12:02:00,
2013-07-14 06:11:00,45.0,35.0,30.09,SSW,202,0.0,0.0,69,0.00,,,0.00,,2013-07-14 12:11:00,
2013-07-14 06:22:00,45.0,36.0,30.09,SSW,203,0.0,0.0,70,0.00,,,0.00,,2013-07-14 12:22:00,
2013-07-14 06:32:00,45.0,36.0,30.09,SSW,203,0.0,0.0,70,0.00,,,0.00,,2013-07-14 12:32:00,
2013-07-14 06:43:00,45.0,36.0,30.09,SSW,203,0.0,0.0,70,0.00,,,0.00,,2013-07-14 12:43:00,
2013-07-14 06:53:00,46.0,37.0,30.08,SSW,203,0.0,0.0,70,0.00,,,0.00,,2013-07-14 12:53:00,
2013-07-14 07:01:00,46.0,37.0,30.08,SSW,203,0.0,0.0,70,0.00,,,0.00,,2013-07-14 13:01:00,
2013-07-14 07:11:00,46.0,37.0,30.08,SSW,203,0.0,0.0,70,0.00,,,0.00,,2013-07-14 13:11:00,
2013-07-14 07:22:00,47.0,38.0,30.09,SSW,203,0.0,0.0,71,0.00,,,0.00,,2013-07-14 13:22:00,
2013-07-14 07:32:00,47.0,38.0,30.09,SSW,203,0.0,0.0,71,0.00,,,0.00,,2013-07-14 13:32:00,
2013-07-14 07:42:00,47.0,38.0,30.09,SSW,203,0.0,0.0,71,0.00,,,0.00,,2013-07-14 13:42:00,
2013-07-14 07:53:00,49.0,41.0,30.09,SSW,203,0.0,0.0,73,0.00,,,0.00,,2013-07-14 13:53:00,
2013-07-14 08:01:00,49.0,41.0,30.09,SSW,203,0.0,0.0,73,0.00,,,0.00,,2013-07-14 14:01:00,
2013-07-14 08:11:00,49.0,41.0,30.09,SSW,203,0.0,0.0,73,0.00,,,0.00,,2013-07-14 14:11:00,
2013-07-14 08:23:00,50.0,42.0,30.09,SSW,203,0.0,0.0,73,0.00,,,0.00,,2013-07-14 14:23:00,
2013-07-14 08:33:00,50.0,42.0,30.09,SSW,203,0.0,0.0,73,0.00,,,0.00,,2013-07-14 14:33:00,
2013-07-14 08:43:00,50.0,42.0,30.09,SSW,203,0.0,0.0,73,0.00,,,0.00,,2013-07-14 14:43:00,
2013-07-14 08:53:00,54.0,43.0,30.08,SSW,203,0.0,0.0,67,0.00,,,0.00,,2013-07-14 14:53:00,
2013-07-14 09:01:00,54.0,43.0,30.08,SSW,203,0.0,0.0,67,0.00,,,0.00,,2013-07-14 15:01:00,
2013-07-14 09:12:00,54.0,43.0,30.08,SSW,203,0.0,0.0,67,0.00,,,0.00,,2013-07-14 15:12:00,
2013-07-14 09:22:00,61.0,40.0,30.08,South,190,0.0,1.0,45,0.00,,,0.00,,2013-07-14 15:22:00,
2013-07-14 09:32:00,61.0,40.0,30.08,South,190,0.0,1.0,45,0.00,,,0.00,,2013-07-14 15:32:00,
2013-07-14 09:42:00,61.0,40.0,30.08,South,190,0.0,1.0,45,0.00,,,0.00,,2013-07-14 15:42:00,
2013-07-14 09:53:00,65.0,41.0,30.09,ESE,117,0.0,2.0,42,0.00,,,0.00,,2013-07-14 15:53:00,
2013-07-14 10:01:00,65.0,41.0,30.09,ESE,117,0.0,2.0,42,0.00,,,0.00,,2013-07-14 16:01:00,
2013-07-14 10:11:00,65.0,41.0,30.09,ESE,117,0.0,2.0,42,0.00,,,0.00,,2013-07-14 16:11:00,
2013-07-14 10:22:00,67.0,43.0,30.09,NNW,342,0.0,5.0,42,0.00,,,0.00,,2013-07-14 16:22:00,
2013-07-14 10:32:00,67.0,43.0,30.09,NNW,342,0.0,5.0,42,0.00,,,0.00,,2013-07-14 16:32:00,
2013-07-14 10:43:00,67.0,43.0,30.09,NNW,342,0.0,5.0,42,0.00,,,0.00,,2013-07-14 16:43:00,
2013-07-14 10:53:00,69.0,43.0,30.09,North,5,1.0,5.0,39,0.00,,,0.00,,2013-07-14 16:53:00,
2013-07-14 11:02:00,69.0,43.0,30.09,North,5,1.0,5.0,39,0.00,,,0.00,,2013-07-14 17:02:00,
2013-07-14 11:11:00,69.0,43.0,30.09,North,5,1.0,5.0,39,0.00,,,0.00,,2013-07-14 17:11:00,
2013-07-14 11:22:00,71.0,42.0,30.07,WNW,286,2.0,5.0,35,0.00,,,0.00,,2013-07-14 17:22:00,
2013-07-14 11:32:00,71.0,42.0,30.07,WNW,286,2.0,5.0,35,0.00,,,0.00,,2013-07-14 17:32:00,
2013-07-14 11:43:00,71.0,42.0,30.07,WNW,286,2.0,5.0,35,0.00,,,0.00,,2013-07-14 17:43:00,
2013-07-14 11:53:00,72.0,42.0,30.07,East,82,1.0,4.0,34,0.00,,,0.00,,2013-07-14 17:53:00,
2013-07-14 12:01:00,72.0,42.0,30.07,East,82,1.0,4.0,34,0.00,,,0.00,,2013-07-14 18:01:00,
2013-07-14 12:11:00,72.0,42.0,30.07,East,82,1.0,4.0,34,0.00,,,0.00,,2013-07-14 18:11:00,
2013-07-14 12:32:00,73.0,38.0,30.07,NNE,30,0.0,3.0,28,0.00,,,0.00,,2013-07-14 18:32:00,
2013-07-14 12:42:00,73.0,38.0,30.07,NNE,30,0.0,3.0,28,0.00,,,0.00,,2013-07-14 18:42:00,
2013-07-14 12:52:00,74.0,40.0,30.06,WNW,300,1.0,4.0,29,0.00,,,0.00,,2013-07-14 18:52:00,
2013-07-14 13:01:00,74.0,40.0,30.06,WNW,300,1.0,4.0,29,0.00,,,0.00,,2013-07-14 19:01:00,
2013-07-14 13:11:00,74.0,40.0,30.06,WNW,300,1.0,4.0,29,0.00,,,0.00,,2013-07-14 19:11:00,
2013-07-14 15:52:00,79.0,34.0,30.01,SE,127,0.0,3.0,20,0.00,,,0.00,,2013-07-14 21:52:00,
2013-07-14 16:01:00,79.0,34.0,30.01,SE,127,0.0,3.0,20,0.00,,,0.00,,2013-07-14 22:01:00,
2013-07-14 16:11:00,79.0,34.0,30.01,SE,127,0.0,3.0,20,0.00,,,0.00,,2013-07-14 22:11:00,
2013-07-14 16:22:00,80.0,34.0,30.00,SSE,153,2.0,6.0,19,0.00,,,0.00,,2013-07-14 22:22:00,
2013-07-14 16:31:00,80.0,34.0,30.00,SSE,153,2.0,6.0,19,0.00,,,0.00,,2013-07-14 22:31:00,
2013-07-14 16:42:00,80.0,34.0,30.00,SSE,153,2.0,6.0,19,0.00,,,0.00,,2013-07-14 22:42:00,
2013-07-14 17:53:00,80.0,33.0,29.97,North,10,2.0,5.0,18,0.00,,,0.00,,2013-07-14 23:53:00,
2013-07-14 18:02:00,80.0,33.0,29.97,North,10,2.0,5.0,18,0.00,,,0.00,,2013-07-15 00:02:00,
2013-07-14 18:11:00,80.0,33.0,29.97,North,10,2.0,5.0,18,0.00,,,0.00,,2013-07-15 00:11:00,
2013-07-14 20:22:00,74.0,36.0,29.94,North,5,0.0,2.0,25,0.00,,,0.00,,2013-07-15 02:22:00,
2013-07-14 20:32:00,74.0,36.0,29.94,North,5,0.0,2.0,25,0.00,,,0.00,,2013-07-15 02:32:00,
2013-07-14 20:42:00,74.0,36.0,29.94,North,5,0.0,2.0,25,0.00,,,0.00,,2013-07-15 02:42:00,
2013-07-14 20:53:00,71.0,35.0,29.93,North,5,0.0,1.0,27,0.00,,,0.00,,2013-07-15 02:53:00,
2013-07-14 21:01:00,71.0,35.0,29.93,North,5,0.0,1.0,27,0.00,,,0.00,,2013-07-15 03:01:00,
2013-07-14 21:11:00,71.0,35.0,29.93,North,5,0.0,1.0,27,0.00,,,0.00,,2013-07-15 03:11:00,
2013-07-14 21:21:00,69.0,40.0,29.94,North,5,0.0,0.0,35,0.00,,,0.00,,2013-07-15 03:21:00,
2013-07-14 21:32:00,69.0,40.0,29.94,North,5,0.0,0.0,35,0.00,,,0.00,,2013-07-15 03:32:00,
2013-07-14 21:43:00,69.0,40.0,29.94,North,5,0.0,0.0,35,0.00,,,0.00,,2013-07-15 03:43:00,
2013-07-14 21:53:00,65.0,41.0,29.93,North,5,0.0,0.0,42,0.00,,,0.00,,2013-07-15 03:53:00,
2013-07-14 22:01:00,65.0,41.0,29.93,North,5,0.0,0.0,42,0.00,,,0.00,,2013-07-15 04:01:00,
2013-07-14 22:11:00,65.0,41.0,29.93,North,5,0.0,0.0,42,0.00,,,0.00,,2013-07-15 04:11:00,
2013-07-14 22:22:00,61.0,41.0,29.96,North,5,0.0,0.0,47,0.00,,,0.00,,2013-07-15 04:22:00,
2013-07-14 22:32:00,61.0,41.0,29.96,North,5,0.0,0.0,47,0.00,,,0.00,,2013-07-15 04:32:00,
2013-07-14 22:42:00,61.0,41.0,29.96,North,5,0.0,0.0,47,0.00,,,0.00,,2013-07-15 04:42:00,
2013-07-14 22:53:00,59.0,39.0,29.96,WSW,240,0.0,1.0,48,0.00,,,0.00,,2013-07-15 04:53:00,
2013-07-14 23:02:00,59.0,39.0,29.96,WSW,240,0.0,1.0,48,0.00,,,0.00,,2013-07-15 05:02:00,
2013-07-14 23:11:00,59.0,39.0,29.96,WSW,240,0.0,1.0,48,0.00,,,0.00,,2013-07-15 05:11:00,
2013-07-14 23:21:00,57.0,39.0,29.96,WSW,240,0.0,0.0,51,0.00,,,0.00,,2013-07-15 05:21:00,
2013-07-14 23:32:00,57.0,39.0,29.96,WSW,240,0.0,0.0,51,0.00,,,0.00,,2013-07-15 05:32:00,
2013-07-14 23:43:00,57.0,39.0,29.96,WSW,240,0.0,0.0,51,0.00,,,0.00,,2013-07-15 05:43:00,
2013-07-14 23:53:00,55.0,37.0,29.96,WSW,240,0.0,0.0,51,0.00,,,0.00,,2013-07-15 05:53:00,